Carlos Chagas, Brazil
Current Conditions -  °F | °C
As of 10:00 AM on Monday 26 Jan 2015 (Local Time) from SBPS Reporting Station
Broken Clouds Broken Clouds  
Wind Chill: 82°   Ceiling: 2000
Heat Index: 87°   Visibility: 6mi
Dew Point: 72°   Wind: 8mph
Humidity: 70%   Direction: 360°N
Pressure: 30"   Gusts: NA
Location:  17.7°S, 40.77°W
Report Text: SBPS 261200Z 36007KT 320V050 9999 SCT015 BKN020 28/22 Q1016
Loading
Personal Weather Stations






























Interactive Weather Map New forecast layout! Learn more

10-Day Weather Forecast

Advertisements
Track Severe Weather on mobile